Dundalk Sparrows Point, Maryland
Current Conditions -  °F | °C
As of 5:45 PM on Friday 31 Oct 2014 (Local Time) from KMTN Reporting Station
Overcast Overcast  
Wind Chill: 54°   Ceiling: 6000
Heat Index: 54°   Visibility: 10mi
Dew Point: 37°   Wind: 0mph
Humidity: 54%   Direction: NA
Pressure: 29.88"   Gusts: NA
Location:  39.2639°N, 76.497°W
Report Text: KMTN 312145Z 00000KT 10SM OVC060 12/03 A2988
Loading
Personal Weather Stations






























Interactive Weather Map
Tropical Storm Tracking
New forecast layout! Learn more

10-Day Weather Forecast

Advertisements
Track Severe Weather on mobile